createdAt,value
2023-03-16T00:00:22.578Z,100618.20
2023-03-16T00:03:02.423Z,100616.00
2023-03-16T00:05:30.754Z,100618.58
2023-03-16T00:07:59.224Z,100618.73
2023-03-16T00:10:27.946Z,100615.81
2023-03-16T00:12:57.643Z,100619.05
2023-03-16T00:15:26.021Z,100620.05
2023-03-16T00:17:54.901Z,100619.21
2023-03-16T00:20:23.205Z,100624.00
2023-03-16T00:22:51.531Z,100624.52
2023-03-16T00:25:19.870Z,100630.52
2023-03-16T00:27:48.186Z,100629.13
2023-03-16T00:30:16.934Z,100633.61
2023-03-16T00:32:45.287Z,100634.67
2023-03-16T00:35:13.632Z,100637.27
2023-03-16T00:37:43.699Z,100640.02
2023-03-16T00:40:12.836Z,100639.17
2023-03-16T00:42:41.527Z,100642.95
2023-03-16T00:45:10.851Z,100644.86
2023-03-16T00:47:39.268Z,100647.08
2023-03-16T00:50:08.359Z,100644.02
2023-03-16T00:52:36.688Z,100646.62
2023-03-16T00:55:05.564Z,100647.17
2023-03-16T00:57:34.310Z,100652.36
2023-03-16T01:02:45.473Z,100655.36
2023-03-16T01:05:14.653Z,100655.92
2023-03-16T01:07:43.124Z,100658.17
2023-03-16T01:10:12.224Z,100658.17
2023-03-16T01:12:40.682Z,100657.52
2023-03-16T01:15:10.263Z,100663.19
2023-03-16T01:17:38.642Z,100667.46
2023-03-16T01:20:12.244Z,100667.45
2023-03-16T01:22:40.566Z,100668.65
2023-03-16T01:25:12.339Z,100674.65
2023-03-16T01:27:40.892Z,100673.09
2023-03-16T01:30:12.440Z,100674.11
2023-03-16T01:32:41.737Z,100679.08
2023-03-16T01:35:10.365Z,100680.30
2023-03-16T01:37:38.744Z,100680.80
2023-03-16T01:40:09.094Z,100685.09
2023-03-16T01:43:23.536Z,100688.54
2023-03-16T01:46:07.153Z,100687.56
2023-03-16T01:49:05.667Z,100689.87
2023-03-16T01:51:52.301Z,100690.79
2023-03-16T01:54:28.231Z,100689.45
2023-03-16T01:57:02.892Z,100688.62
2023-03-16T01:59:38.781Z,100689.35
2023-03-16T02:02:09.238Z,100689.33
2023-03-16T02:04:49.094Z,100692.74
2023-03-16T02:07:20.727Z,100695.65
2023-03-16T02:09:53.584Z,100698.90
2023-03-16T02:12:22.278Z,100698.20
2023-03-16T02:14:52.042Z,100701.45
2023-03-16T02:17:27.715Z,100702.65
2023-03-16T02:20:15.796Z,100702.48
2023-03-16T02:22:48.306Z,100701.79
2023-03-16T02:25:19.050Z,100701.45
2023-03-16T02:28:30.240Z,100704.91
2023-03-16T02:30:58.737Z,100704.44
2023-03-16T02:33:29.017Z,100707.70
2023-03-16T02:35:57.330Z,100707.90
2023-03-16T02:38:25.702Z,100713.59
2023-03-16T02:41:20.630Z,100712.58
2023-03-16T02:44:15.335Z,100712.77
2023-03-16T02:46:44.528Z,100716.88
2023-03-16T02:52:11.349Z,100720.30
2023-03-16T02:54:39.814Z,100723.77
2023-03-16T02:57:08.363Z,100727.69
2023-03-16T02:59:36.708Z,100733.02
2023-03-16T03:02:05.205Z,100731.45
2023-03-16T03:04:33.500Z,100729.74
2023-03-16T03:07:04.934Z,100731.27
2023-03-16T03:09:33.608Z,100730.39
2023-03-16T03:12:01.967Z,100729.36
2023-03-16T03:14:30.403Z,100735.19
2023-03-16T03:16:58.750Z,100734.32
2023-03-16T03:19:27.053Z,100734.48
2023-03-16T03:21:58.167Z,100737.73
2023-03-16T03:24:28.150Z,100741.84
2023-03-16T03:26:56.568Z,100738.90
2023-03-16T03:29:24.989Z,100743.36
2023-03-16T03:31:53.392Z,100746.95
2023-03-16T03:34:21.735Z,100751.09
2023-03-16T03:36:50.071Z,100750.58
2023-03-16T03:39:18.842Z,100750.59
2023-03-16T03:41:47.750Z,100753.02
2023-03-16T03:44:16.279Z,100752.89
2023-03-16T03:46:44.710Z,100753.45
2023-03-16T03:49:13.229Z,100756.10
2023-03-16T03:51:41.697Z,100754.96
2023-03-16T03:54:10.555Z,100757.25
2023-03-16T03:56:38.989Z,100762.48
2023-03-16T03:59:07.387Z,100764.96
2023-03-16T04:01:35.751Z,100767.61
2023-03-16T04:04:04.054Z,100763.23
2023-03-16T04:06:32.513Z,100766.72
2023-03-16T04:09:01.092Z,100767.98
2023-03-16T04:11:29.576Z,100770.42
2023-03-16T04:13:57.856Z,100773.23
2023-03-16T04:16:27.085Z,100774.13
2023-03-16T04:18:56.634Z,100773.47
2023-03-16T04:21:25.293Z,100778.11
2023-03-16T04:23:54.477Z,100774.54
2023-03-16T04:26:23.029Z,100773.54
2023-03-16T04:28:52.663Z,100776.43
2023-03-16T04:31:21.055Z,100775.27
2023-03-16T04:33:49.909Z,100779.54
2023-03-16T04:36:18.264Z,100781.44
2023-03-16T04:38:46.678Z,100782.47
2023-03-16T04:41:15.325Z,100779.75
2023-03-16T04:43:43.964Z,100787.98
2023-03-16T04:46:12.319Z,100790.21
2023-03-16T04:48:40.794Z,100792.97
2023-03-16T04:51:09.150Z,100796.23
2023-03-16T04:53:37.462Z,100797.42
2023-03-16T04:56:07.534Z,100796.90
2023-03-16T04:58:35.931Z,100800.33
2023-03-16T05:01:04.290Z,100802.54
2023-03-16T05:03:32.800Z,100805.29
2023-03-16T05:06:01.217Z,100804.08
2023-03-16T05:08:29.572Z,100805.45
2023-03-16T05:10:59.334Z,100809.88
2023-03-16T05:13:27.813Z,100813.16
2023-03-16T05:15:56.235Z,100812.63
2023-03-16T05:18:25.012Z,100812.76
2023-03-16T05:20:56.023Z,100816.69
2023-03-16T05:23:24.671Z,100812.52
2023-03-16T05:25:52.979Z,100815.91
2023-03-16T05:28:21.335Z,100811.08
2023-03-16T05:30:49.711Z,100812.77
2023-03-16T05:33:18.087Z,100813.55
2023-03-16T05:35:46.480Z,100815.71
2023-03-16T05:38:15.856Z,100816.17
2023-03-16T05:40:44.241Z,100820.03
2023-03-16T05:43:12.692Z,100819.75
2023-03-16T05:45:40.985Z,100821.52
2023-03-16T05:48:09.346Z,100822.44
2023-03-16T05:50:37.768Z,100823.35
2023-03-16T05:53:06.137Z,100827.67
2023-03-16T05:55:34.710Z,100828.56
2023-03-16T05:58:05.612Z,100831.35
2023-03-16T06:00:34.084Z,100831.91
2023-03-16T06:03:02.525Z,100834.18
2023-03-16T06:05:32.123Z,100832.48
2023-03-16T06:08:01.429Z,100835.75
2023-03-16T06:10:30.270Z,100842.27
2023-03-16T06:12:59.981Z,100848.09
2023-03-16T06:15:30.558Z,100847.40
2023-03-16T06:17:59.098Z,100850.80
2023-03-16T06:20:27.764Z,100853.20
2023-03-16T06:22:56.225Z,100857.15
2023-03-16T06:25:24.614Z,100857.15
2023-03-16T06:27:52.948Z,100860.08
2023-03-16T06:30:21.430Z,100860.27
2023-03-16T06:32:49.798Z,100868.16
2023-03-16T06:35:18.158Z,100867.27
2023-03-16T06:37:46.591Z,100872.47
2023-03-16T06:40:14.933Z,100869.89
2023-03-16T06:42:45.678Z,100871.80
2023-03-16T06:45:16.712Z,100875.28
2023-03-16T06:47:45.022Z,100877.34
2023-03-16T06:50:13.506Z,100880.77
2023-03-16T06:52:41.824Z,100879.59
2023-03-16T06:55:12.517Z,100877.37
2023-03-16T06:57:41.988Z,100880.64
2023-03-16T07:00:15.389Z,100883.16
2023-03-16T07:02:43.939Z,100882.96
2023-03-16T07:05:13.267Z,100885.16
2023-03-16T07:07:42.844Z,100888.39
2023-03-16T07:10:14.886Z,100886.63
2023-03-16T07:12:44.478Z,100887.56
2023-03-16T07:15:13.444Z,100891.30
2023-03-16T07:17:42.685Z,100890.92
2023-03-16T07:20:12.813Z,100889.83
2023-03-16T07:22:41.918Z,100892.69
2023-03-16T07:25:11.556Z,100890.42
2023-03-16T07:27:41.344Z,100889.31
2023-03-16T07:30:14.227Z,100893.08
2023-03-16T07:32:42.811Z,100897.33
2023-03-16T07:35:11.759Z,100899.10
2023-03-16T07:37:40.306Z,100897.42
2023-03-16T07:40:10.394Z,100904.86
2023-03-16T07:42:38.765Z,100908.03
2023-03-16T07:45:08.747Z,100907.78
2023-03-16T07:47:37.036Z,100909.27
2023-03-16T07:50:06.293Z,100916.95
2023-03-16T07:52:37.388Z,100916.54
2023-03-16T07:55:06.718Z,100918.55
2023-03-16T07:57:35.272Z,100916.48
2023-03-16T08:00:05.335Z,100919.24
2023-03-16T08:02:33.758Z,100913.02
2023-03-16T08:05:02.133Z,100917.83
2023-03-16T08:07:31.894Z,100914.23
2023-03-16T08:10:01.004Z,100918.80
2023-03-16T08:12:29.428Z,100920.96
2023-03-16T08:14:57.872Z,100920.45
2023-03-16T08:17:26.205Z,100922.52
2023-03-16T08:19:54.581Z,100927.09
2023-03-16T08:22:23.700Z,100930.90
2023-03-16T08:24:52.232Z,100928.79
2023-03-16T08:27:20.641Z,100932.50
2023-03-16T08:29:53.376Z,100940.02
2023-03-16T08:32:22.037Z,100936.61
2023-03-16T08:34:50.416Z,100943.38
2023-03-16T08:37:18.831Z,100944.07
2023-03-16T08:39:47.243Z,100943.92
2023-03-16T08:42:16.818Z,100940.05
2023-03-16T08:44:45.266Z,100943.76
2023-03-16T08:47:14.312Z,100941.30
2023-03-16T08:49:42.783Z,100943.06
2023-03-16T08:52:12.840Z,100949.30
2023-03-16T08:54:47.117Z,100949.21
2023-03-16T08:57:21.319Z,100952.52
2023-03-16T08:59:49.843Z,100954.17
2023-03-16T09:02:18.658Z,100952.23
2023-03-16T09:04:47.447Z,100955.97
2023-03-16T09:07:15.889Z,100955.79
2023-03-16T09:09:45.226Z,100957.03
2023-03-16T09:12:13.775Z,100955.76
2023-03-16T09:14:42.265Z,100952.67
2023-03-16T09:17:11.827Z,100955.36
2023-03-16T09:19:51.137Z,100956.23
2023-03-16T09:22:22.009Z,100953.58
2023-03-16T09:24:51.341Z,100948.98
2023-03-16T09:27:20.719Z,100946.19
2023-03-16T09:29:52.972Z,100947.32
2023-03-16T09:32:21.744Z,100945.13
2023-03-16T09:34:50.673Z,100948.08
2023-03-16T09:37:18.960Z,100947.52
2023-03-16T09:39:49.412Z,100946.00
2023-03-16T09:42:29.852Z,100947.71
2023-03-16T09:45:38.731Z,100952.16
2023-03-16T09:48:10.829Z,100949.63
2023-03-16T09:50:48.926Z,100952.78
2023-03-16T09:53:40.334Z,100951.84
2023-03-16T09:56:25.353Z,100954.48
2023-03-16T09:58:55.300Z,100954.63
2023-03-16T10:01:38.277Z,100952.34
2023-03-16T10:04:21.985Z,100950.95
2023-03-16T10:07:45.125Z,100953.54
2023-03-16T10:10:14.582Z,100952.93
2023-03-16T10:12:50.404Z,100954.11
2023-03-16T10:15:27.116Z,100951.12
2023-03-16T10:18:07.194Z,100948.61
2023-03-16T10:20:36.668Z,100950.26
2023-03-16T10:23:35.306Z,100947.88
2023-03-16T10:26:13.860Z,100956.20
2023-03-16T10:28:43.574Z,100955.59
2023-03-16T10:31:14.683Z,100956.19
2023-03-16T10:33:43.799Z,100951.90
2023-03-16T10:36:33.803Z,100955.92
2023-03-16T10:39:10.885Z,100953.54
2023-03-16T10:41:47.885Z,100953.06
2023-03-16T10:44:25.611Z,100942.34
2023-03-16T10:47:05.402Z,100946.73
2023-03-16T10:49:42.143Z,100946.23
2023-03-16T10:52:24.998Z,100943.11
2023-03-16T10:55:00.461Z,100944.34
2023-03-16T10:57:35.502Z,100941.42
2023-03-16T11:00:22.229Z,100941.67
2023-03-16T11:02:56.839Z,100946.80
2023-03-16T11:05:32.352Z,100947.48
2023-03-16T11:08:19.422Z,100948.59
2023-03-16T11:11:01.087Z,100940.95
2023-03-16T11:13:36.027Z,100936.27
2023-03-16T11:16:25.910Z,100938.10
2023-03-16T11:19:04.886Z,100946.59
2023-03-16T11:21:59.832Z,100939.58
2023-03-16T11:24:42.810Z,100935.50
2023-03-16T11:27:30.353Z,100931.55
2023-03-16T11:30:09.791Z,100935.04
2023-03-16T11:32:49.083Z,100935.14
2023-03-16T11:35:41.989Z,100931.67
2023-03-16T11:38:26.647Z,100932.73
2023-03-16T11:41:00.319Z,100936.45
2023-03-16T11:43:37.053Z,100930.86
2023-03-16T11:46:31.679Z,100930.86
2023-03-16T11:49:58.755Z,100932.51
2023-03-16T11:53:12.255Z,100927.59
2023-03-16T11:56:16.227Z,100914.86
2023-03-16T11:59:01.361Z,100911.98
2023-03-16T12:02:06.156Z,100914.18
2023-03-16T12:04:51.710Z,100909.48
2023-03-16T12:08:11.003Z,100906.23
2023-03-16T12:11:28.764Z,100899.98
2023-03-16T12:14:20.004Z,100906.52
2023-03-16T12:17:01.265Z,100903.16
2023-03-16T12:20:05.744Z,100907.02
2023-03-16T12:22:45.215Z,100903.55
2023-03-16T12:25:22.208Z,100901.13
2023-03-16T12:27:58.626Z,100903.35
2023-03-16T12:30:59.221Z,100899.29
2023-03-16T12:33:52.987Z,100897.48
2023-03-16T12:37:10.413Z,100893.70
2023-03-16T12:40:07.699Z,100896.24
2023-03-16T12:42:39.914Z,100898.58
2023-03-16T12:45:22.758Z,100896.98
2023-03-16T12:48:14.608Z,100897.73
2023-03-16T12:50:53.177Z,100896.23
2023-03-16T12:53:42.302Z,100892.70
2023-03-16T12:56:19.436Z,100889.39
2023-03-16T12:58:50.971Z,100890.90
2023-03-16T13:01:52.121Z,100890.73
2023-03-16T13:04:44.490Z,100889.65
2023-03-16T13:07:21.606Z,100894.16
2023-03-16T13:09:57.430Z,100895.98
2023-03-16T13:12:32.950Z,100896.27
2023-03-16T13:15:02.153Z,100897.48
2023-03-16T13:17:33.340Z,100897.20
2023-03-16T13:20:30.838Z,100895.73
2023-03-16T13:23:22.276Z,100902.65
2023-03-16T13:26:03.454Z,100895.48
2023-03-16T13:28:39.157Z,100903.48
2023-03-16T13:31:37.288Z,100897.85
2023-03-16T13:34:11.944Z,100895.90
2023-03-16T13:36:44.209Z,100896.29
2023-03-16T13:39:27.358Z,100895.99
2023-03-16T13:42:08.965Z,100895.84
2023-03-16T13:44:41.856Z,100897.42
2023-03-16T13:47:20.237Z,100898.17
2023-03-16T13:49:58.382Z,100903.54
2023-03-16T13:52:31.002Z,100898.50
2023-03-16T13:55:07.232Z,100897.13
2023-03-16T13:57:38.952Z,100895.66
2023-03-16T14:00:24.853Z,100896.56
2023-03-16T14:02:59.583Z,100895.84
2023-03-16T14:05:38.929Z,100893.20
2023-03-16T14:08:20.332Z,100890.18
2023-03-16T14:10:50.781Z,100885.70
2023-03-16T14:13:28.098Z,100882.65
2023-03-16T14:16:01.248Z,100880.44
2023-03-16T14:19:01.866Z,100878.45
2023-03-16T14:21:35.680Z,100875.28
2023-03-16T14:24:07.083Z,100868.03
2023-03-16T14:26:45.452Z,100870.55
2023-03-16T14:29:24.912Z,100869.73
2023-03-16T14:31:54.424Z,100869.20
2023-03-16T14:34:40.846Z,100868.25
2023-03-16T14:37:13.200Z,100862.83
2023-03-16T14:39:42.583Z,100856.46
2023-03-16T14:42:30.984Z,100850.80
2023-03-16T14:45:02.647Z,100853.08
2023-03-16T14:51:14.505Z,100846.91
2023-03-16T14:53:42.957Z,100848.86
2023-03-16T14:56:13.632Z,100849.06
2023-03-16T14:59:43.779Z,100849.20
2023-03-16T15:08:44.521Z,100849.68
2023-03-16T15:11:13.802Z,100846.34
2023-03-16T15:13:42.153Z,100849.22
2023-03-16T15:16:13.997Z,100849.39
2023-03-16T15:18:43.161Z,100847.67
2023-03-16T15:21:29.652Z,100841.73
2023-03-16T15:23:58.882Z,100845.16
2023-03-16T15:26:41.166Z,100845.05
2023-03-16T15:29:11.722Z,100841.10
2023-03-16T15:31:40.198Z,100838.15
2023-03-16T15:34:08.757Z,100836.16
2023-03-16T15:36:37.603Z,100840.30
2023-03-16T15:39:09.138Z,100844.67
2023-03-16T15:41:47.279Z,100843.25
2023-03-16T15:44:17.255Z,100843.80
2023-03-16T15:46:45.719Z,100850.99
2023-03-16T15:49:14.198Z,100850.88
2023-03-16T15:51:42.541Z,100849.33
2023-03-16T15:54:12.089Z,100847.88
2023-03-16T15:56:54.584Z,100846.63
2023-03-16T15:59:28.738Z,100847.71
2023-03-16T16:01:57.571Z,100848.59
2023-03-16T16:04:26.103Z,100850.58
2023-03-16T16:06:55.377Z,100848.04
2023-03-16T16:09:24.211Z,100847.42
2023-03-16T16:11:52.722Z,100847.76
2023-03-16T16:14:31.073Z,100848.43
2023-03-16T16:16:59.590Z,100851.65
2023-03-16T16:19:28.427Z,100855.30
2023-03-16T16:21:57.309Z,100853.44
2023-03-16T16:24:25.633Z,100855.56
2023-03-16T16:26:55.758Z,100856.67
2023-03-16T16:29:32.308Z,100861.44
2023-03-16T16:32:01.215Z,100862.89
2023-03-16T16:35:21.512Z,100860.19
2023-03-16T16:37:51.326Z,100864.02
2023-03-16T16:40:59.745Z,100865.61
2023-03-16T16:43:42.818Z,100863.10
2023-03-16T16:46:19.433Z,100870.89
2023-03-16T16:49:14.949Z,100871.98
2023-03-16T16:51:43.594Z,100874.95
2023-03-16T16:54:18.371Z,100875.79
2023-03-16T16:56:49.008Z,100879.65
2023-03-16T16:59:31.520Z,100874.47
2023-03-16T17:02:30.045Z,100879.60
2023-03-16T17:04:58.663Z,100880.63
2023-03-16T17:07:27.372Z,100880.45
2023-03-16T17:09:56.252Z,100880.07
2023-03-16T17:12:24.874Z,100886.81
2023-03-16T17:14:53.376Z,100892.26
2023-03-16T17:17:22.356Z,100891.30
2023-03-16T17:19:51.738Z,100892.30
2023-03-16T17:22:28.305Z,100893.56
2023-03-16T17:24:56.859Z,100894.60
2023-03-16T17:27:32.203Z,100898.86
2023-03-16T17:30:01.932Z,100898.09
2023-03-16T17:32:31.018Z,100896.20
2023-03-16T17:34:59.389Z,100899.67
2023-03-16T17:37:28.707Z,100898.81
2023-03-16T17:39:57.727Z,100901.80
2023-03-16T17:42:27.049Z,100907.92
2023-03-16T17:44:56.543Z,100913.89
2023-03-16T17:47:27.558Z,100917.13
2023-03-16T17:49:57.175Z,100917.69
2023-03-16T17:52:29.246Z,100916.96
2023-03-16T17:54:57.687Z,100918.02
2023-03-16T17:57:33.265Z,100912.08
2023-03-16T18:00:08.903Z,100914.04
2023-03-16T18:02:54.209Z,100912.90
2023-03-16T18:05:35.281Z,100915.40
2023-03-16T18:08:34.113Z,100920.21
2023-03-16T18:11:07.994Z,100921.13
2023-03-16T18:13:40.491Z,100922.22
2023-03-16T18:16:18.079Z,100922.79
2023-03-16T18:18:46.671Z,100919.77
2023-03-16T18:21:24.659Z,100920.01
2023-03-16T18:23:54.233Z,100924.38
2023-03-16T18:26:24.660Z,100925.89
2023-03-16T18:28:53.574Z,100925.64
2023-03-16T18:31:28.301Z,100922.96
2023-03-16T18:34:00.883Z,100925.90
2023-03-16T18:36:33.312Z,100929.52
2023-03-16T18:39:05.973Z,100927.82
2023-03-16T18:41:35.113Z,100930.16
2023-03-16T18:44:22.135Z,100936.83
2023-03-16T18:46:57.639Z,100932.44
2023-03-16T18:49:36.544Z,100935.02
2023-03-16T18:52:17.470Z,100930.70
2023-03-16T18:54:48.215Z,100930.89
2023-03-16T18:57:20.155Z,100929.02
2023-03-16T18:59:49.917Z,100924.84
2023-03-16T19:02:38.888Z,100930.71
2023-03-16T19:05:30.414Z,100928.36
2023-03-16T19:07:59.442Z,100923.20
2023-03-16T19:10:33.278Z,100927.11
2023-03-16T19:13:02.066Z,100926.68
2023-03-16T19:15:35.614Z,100927.09
2023-03-16T19:18:04.023Z,100929.55
2023-03-16T19:20:34.964Z,100928.54
2023-03-16T19:23:19.823Z,100929.59
2023-03-16T19:25:49.516Z,100921.83
2023-03-16T19:28:33.868Z,100922.11
2023-03-16T19:31:07.303Z,100927.09
2023-03-16T19:33:35.869Z,100926.78
2023-03-16T19:36:06.832Z,100927.39
2023-03-16T19:38:35.620Z,100925.70
2023-03-16T19:41:05.406Z,100924.19
2023-03-16T19:43:33.878Z,100922.45
2023-03-16T19:46:02.339Z,100927.65
2023-03-16T19:48:33.840Z,100935.41
2023-03-16T19:51:02.305Z,100933.53
2023-03-16T19:53:30.747Z,100937.45
2023-03-16T19:55:59.428Z,100938.46
2023-03-16T19:58:42.728Z,100945.20
2023-03-16T20:01:22.185Z,100945.05
2023-03-16T20:03:51.729Z,100951.77
2023-03-16T20:06:23.382Z,100951.95
2023-03-16T20:08:51.920Z,100951.89
2023-03-16T20:11:30.972Z,100952.71
2023-03-16T20:14:00.668Z,100957.34
2023-03-16T20:16:35.622Z,100953.34
2023-03-16T20:19:13.652Z,100956.74
2023-03-16T20:21:43.279Z,100956.36
2023-03-16T20:24:16.353Z,100954.94
2023-03-16T20:26:46.657Z,100949.88
2023-03-16T20:29:31.296Z,100945.01
2023-03-16T20:32:01.331Z,100947.73
2023-03-16T20:34:32.341Z,100952.84
2023-03-16T20:37:01.376Z,100948.17
2023-03-16T20:39:30.765Z,100945.05
2023-03-16T20:41:59.186Z,100941.09
2023-03-16T20:44:30.327Z,100944.82
2023-03-16T20:46:58.835Z,100946.83
2023-03-16T20:49:32.921Z,100945.05
2023-03-16T20:52:01.444Z,100942.42
2023-03-16T20:54:32.879Z,100941.00
2023-03-16T20:57:01.269Z,100937.50
2023-03-16T20:59:30.418Z,100937.93
2023-03-16T21:01:58.855Z,100932.89
2023-03-16T21:04:28.852Z,100931.81
2023-03-16T21:06:57.716Z,100934.69
2023-03-16T21:09:26.662Z,100934.27
2023-03-16T21:11:55.098Z,100931.41
2023-03-16T21:14:24.715Z,100938.22
2023-03-16T21:16:54.423Z,100940.52
2023-03-16T21:19:24.118Z,100933.04
2023-03-16T21:21:53.142Z,100931.39
2023-03-16T21:24:21.981Z,100928.04
2023-03-16T21:26:50.372Z,100929.45
2023-03-16T21:29:22.054Z,100922.14
2023-03-16T21:31:51.809Z,100912.58
2023-03-16T21:34:30.692Z,100905.77
2023-03-16T21:36:59.412Z,100902.55
2023-03-16T21:39:28.490Z,100898.52
2023-03-16T21:41:57.131Z,100898.40
2023-03-16T21:44:26.074Z,100897.98
2023-03-16T21:46:54.725Z,100894.60
2023-03-16T21:49:23.401Z,100893.80
2023-03-16T21:51:51.925Z,100894.91
2023-03-16T21:54:20.380Z,100897.36
2023-03-16T21:56:48.714Z,100894.32
2023-03-16T21:59:17.193Z,100888.54
2023-03-16T22:02:00.775Z,100887.03
2023-03-16T22:04:30.328Z,100885.77
2023-03-16T22:06:58.804Z,100884.79
2023-03-16T22:09:30.400Z,100884.14
2023-03-16T22:11:58.936Z,100887.60
2023-03-16T22:14:27.400Z,100885.38
2023-03-16T22:16:56.906Z,100887.12
2023-03-16T22:19:27.256Z,100890.75
2023-03-16T22:21:59.246Z,100891.45
2023-03-16T22:24:30.988Z,100890.45
2023-03-16T22:26:59.479Z,100894.41
2023-03-16T22:29:36.704Z,100891.99
2023-03-16T22:32:14.980Z,100894.25
2023-03-16T22:34:49.295Z,100899.27
2023-03-16T22:37:23.050Z,100895.16
2023-03-16T22:39:53.029Z,100888.33
2023-03-16T22:42:38.949Z,100883.55
2023-03-16T22:45:28.571Z,100888.95
2023-03-16T22:48:00.274Z,100890.07
2023-03-16T22:50:34.065Z,100893.92
2023-03-16T22:53:07.420Z,100902.20
2023-03-16T22:55:39.780Z,100898.95
2023-03-16T22:58:22.162Z,100891.40
2023-03-16T23:00:50.728Z,100895.00
2023-03-16T23:03:22.406Z,100891.91
2023-03-16T23:05:51.792Z,100892.79
2023-03-16T23:08:23.471Z,100897.45
2023-03-16T23:10:53.539Z,100902.63
2023-03-16T23:13:25.547Z,100902.30
2023-03-16T23:15:55.414Z,100904.92
2023-03-16T23:18:26.098Z,100901.17
2023-03-16T23:20:54.424Z,100908.77
2023-03-16T23:23:22.810Z,100915.81
2023-03-16T23:25:51.146Z,100916.73
2023-03-16T23:28:24.592Z,100922.77
2023-03-16T23:30:53.021Z,100934.48
2023-03-16T23:33:21.865Z,100935.19
2023-03-16T23:35:50.247Z,100936.43
2023-03-16T23:38:18.604Z,100936.98
2023-03-16T23:40:46.931Z,100936.17
2023-03-16T23:43:16.195Z,100932.94
2023-03-16T23:45:46.669Z,100931.11
2023-03-16T23:48:21.550Z,100933.23
2023-03-16T23:50:53.145Z,100930.88
2023-03-16T23:53:22.794Z,100923.72
2023-03-16T23:55:51.566Z,100914.52
2023-03-16T23:58:20.053Z,100913.17
